Pagrindinis puslapis
METAR-TAF:

METAR-TAF

Oro uostai :

Japas, Mikronezija

platuma: 09-29N, ilguma: 138-05E, Aukštis: 28 m

Dabartinis oras

Ataskaita buvo paskelbta 45 minutes, ne 22:53 UTC
Vėjas 5 kt nuo kintamojo kryptimis
Temperatūra 27°C
Drėgmė 79%
Slėgis 1012 hPa
Matomumas: 19.3 km
Mažai debesys ne aukštis 1600 ft
Išsisklaidę debesys ne aukštis 3000 ft
Su prošvaistėmis ne aukštis 13000 ft
Apsiniaukę ne aukštis 30000 ft

METAR: PTYA 052253Z VRB05KT 12SM FEW016 SCT030 BKN130 OVC300 27/23 A2987 RMK SLP115 T02700228

Laikas: 09:38 (23:38 UTC)

Prognozė

Ataskaita buvo paskelbta 6 valandos ir 18 minutes, ne 17:20 UTC
Prognozė galioja nuo 05 metu 18 UTC su 06 metu 18 UTC
Vėjas 6 kt nuo kintamojo kryptimis
Matomumas: 10 km
Išsisklaidę debesys ne aukštis 1500 ft
Išsisklaidę debesys ne aukštis 5000 ft
Su prošvaistėmis ne aukštis 12000 ft
Liūtis kaimynystėje

TAF: PTYA 051720Z 0518/0618 VRB06KT P6SM VCSH SCT015 SCT050 BKN120

Orai ataskaitas ir orų prognozės (METAR, TAF).

turimą stotys yra geltonos ir raudonos taškus žemėlapyje.

Perkelti pele per norėdami pamatyti stoties vardą.

Tada spustelėkite, norėdami matyti oro stebėjimo ir prognozės.

Norėdami pakeisti žemėlapį: spustelėkite ant žalios mygtukų su juodo kryžiaus žemyn,; žalią mygtuką su brūkšneliu, jei norite nutolinti; arba žalių rodyklių gretimoms žemėlapius.


METAR-TAF: